TimeCST,TemperatureF,Dew PointF,Humidity,Sea Level PressureIn,VisibilityMPH,Wind Direction,Wind SpeedMPH,Gust SpeedMPH,PrecipitationIn,Events,Conditions,WindDirDegrees,DateUTC
12:35 AM,46.4,44.6,93,29.51,10.0,SW,5.8,-,N/A,,Overcast,230,2013-01-30 06:35:00
12:55 AM,46.4,44.6,93,29.52,10.0,WNW,13.8,17.3,N/A,,Overcast,290,2013-01-30 06:55:00
1:15 AM,46.4,42.8,87,29.52,8.0,West,13.8,-,N/A,,Overcast,280,2013-01-30 07:15:00
1:35 AM,44.6,42.8,93,29.53,9.0,WNW,13.8,18.4,N/A,,Overcast,290,2013-01-30 07:35:00
1:55 AM,44.6,41.0,87,29.52,5.0,West,11.5,16.1,N/A,,Overcast,280,2013-01-30 07:55:00
2:15 AM,42.8,39.2,87,29.53,4.0,WNW,11.5,-,N/A,,Overcast,290,2013-01-30 08:15:00
2:55 AM,42.8,39.2,87,29.54,2.0,WNW,16.1,20.7,N/A,,Overcast,290,2013-01-30 08:55:00
3:35 AM,39.2,37.4,93,29.55,2.0,WNW,12.7,20.7,N/A,,Overcast,300,2013-01-30 09:35:00
4:35 AM,39.2,35.6,87,29.55,8.0,WNW,11.5,18.4,N/A,,Overcast,290,2013-01-30 10:35:00
4:55 AM,37.4,33.8,87,29.55,9.0,WNW,12.7,-,N/A,,Overcast,290,2013-01-30 10:55:00
5:15 AM,37.4,33.8,87,29.57,10.0,West,10.4,-,N/A,,Overcast,280,2013-01-30 11:15:00
5:36 AM,37.4,30.2,75,29.57,10.0,WNW,13.8,-,N/A,,Overcast,290,2013-01-30 11:36:00
5:55 AM,37.4,30.2,75,29.58,10.0,WNW,17.3,21.9,N/A,,Overcast,290,2013-01-30 11:55:00
6:15 AM,37.4,30.2,75,29.60,10.0,West,12.7,17.3,N/A,,Overcast,280,2013-01-30 12:15:00
6:36 AM,37.4,30.2,75,29.61,10.0,WNW,18.4,21.9,N/A,,Overcast,290,2013-01-30 12:36:00
6:55 AM,35.6,30.2,81,29.62,10.0,WNW,12.7,26.5,N/A,,Overcast,300,2013-01-30 12:55:00
7:15 AM,35.6,28.4,75,29.64,10.0,WNW,13.8,19.6,N/A,,Overcast,300,2013-01-30 13:15:00
7:55 AM,35.6,30.2,81,29.66,10.0,WNW,15.0,21.9,N/A,,Overcast,300,2013-01-30 13:55:00
8:15 AM,33.8,28.4,81,29.68,1.5,WNW,13.8,21.9,N/A,,Overcast,300,2013-01-30 14:15:00
8:55 AM,35.6,28.4,75,29.69,10.0,NW,19.6,26.5,N/A,,Overcast,310,2013-01-30 14:55:00
9:15 AM,33.8,28.4,81,29.70,7.0,NW,13.8,23.0,N/A,,Overcast,310,2013-01-30 15:15:00
9:55 AM,35.6,28.4,75,29.72,10.0,WNW,19.6,-,N/A,,Overcast,300,2013-01-30 15:55:00
10:15 AM,33.8,26.6,75,29.73,10.0,NNW,19.6,28.8,N/A,,Overcast,330,2013-01-30 16:15:00
10:36 AM,33.8,26.6,75,29.75,10.0,NNW,17.3,24.2,N/A,,Overcast,330,2013-01-30 16:36:00
10:55 AM,33.8,24.8,70,29.76,10.0,NW,19.6,28.8,N/A,,Overcast,320,2013-01-30 16:55:00
11:15 AM,33.8,24.8,70,29.76,10.0,NNW,20.7,-,N/A,,Overcast,330,2013-01-30 17:15:00
11:35 AM,33.8,24.8,70,29.78,10.0,NW,18.4,25.3,N/A,,Overcast,310,2013-01-30 17:35:00
11:55 AM,32.0,24.8,75,29.79,10.0,NW,18.4,27.6,N/A,,Overcast,310,2013-01-30 17:55:00
12:15 PM,30.2,24.8,80,29.81,10.0,NW,18.4,25.3,N/A,,Overcast,320,2013-01-30 18:15:00
12:36 PM,30.2,23.0,75,29.81,10.0,NW,16.1,26.5,N/A,,Overcast,310,2013-01-30 18:36:00
12:55 PM,30.2,23.0,75,29.82,10.0,North,-9999.0,-,N/A,,Overcast,0,2013-01-30 18:55:00
1:15 PM,30.2,24.8,80,29.83,10.0,NW,17.3,24.2,N/A,,Overcast,310,2013-01-30 19:15:00
1:55 PM,30.2,21.2,69,29.84,10.0,WNW,18.4,25.3,N/A,,Overcast,300,2013-01-30 19:55:00
2:15 PM,30.2,21.2,69,29.85,10.0,WNW,15.0,25.3,N/A,,Overcast,300,2013-01-30 20:15:00
2:55 PM,28.4,21.2,74,29.87,10.0,WNW,21.9,28.8,N/A,,Overcast,290,2013-01-30 20:55:00
3:15 PM,28.4,21.2,74,29.88,10.0,WNW,15.0,25.3,N/A,,Overcast,300,2013-01-30 21:15:00
3:35 PM,28.4,21.2,74,29.89,10.0,WNW,16.1,26.5,N/A,,Overcast,300,2013-01-30 21:35:00
3:56 PM,28.4,21.2,74,29.91,10.0,WNW,18.4,21.9,N/A,,Overcast,300,2013-01-30 21:56:00
4:15 PM,28.4,21.2,74,29.91,10.0,WNW,18.4,21.9,N/A,,Overcast,290,2013-01-30 22:15:00
4:35 PM,28.4,19.4,69,29.92,10.0,WNW,15.0,23.0,N/A,,Overcast,290,2013-01-30 22:35:00
5:15 PM,30.2,21.2,69,29.93,10.0,West,17.3,25.3,N/A,,Overcast,280,2013-01-30 23:15:00
5:35 PM,30.2,19.4,64,29.93,10.0,WNW,13.8,20.7,N/A,,Overcast,300,2013-01-30 23:35:00
5:56 PM,30.2,19.4,64,29.93,10.0,NW,9.2,-,N/A,,Overcast,310,2013-01-30 23:56:00
6:15 PM,30.2,19.4,64,29.94,10.0,WNW,9.2,-,N/A,,Overcast,300,2013-01-31 00:15:00
6:35 PM,30.2,19.4,64,29.95,10.0,WNW,12.7,-,N/A,,Overcast,300,2013-01-31 00:35:00
7:15 PM,28.4,19.4,69,29.97,10.0,WNW,6.9,-,N/A,,Overcast,300,2013-01-31 01:15:00
7:35 PM,28.4,19.4,69,29.97,10.0,NW,8.1,-,N/A,,Mostly Cloudy,320,2013-01-31 01:35:00
8:15 PM,28.4,19.4,69,29.98,10.0,WNW,6.9,-,N/A,,Clear,300,2013-01-31 02:15:00
8:35 PM,26.6,19.4,74,29.99,10.0,WNW,5.8,-,N/A,,Clear,300,2013-01-31 02:35:00
8:55 PM,26.6,19.4,74,29.99,10.0,WNW,4.6,-,N/A,,Clear,300,2013-01-31 02:55:00
9:35 PM,26.6,19.4,74,30.01,10.0,West,4.6,-,N/A,,Clear,280,2013-01-31 03:35:00
9:55 PM,26.6,19.4,74,30.01,10.0,West,3.5,-,N/A,,Clear,280,2013-01-31 03:55:00
10:35 PM,26.6,19.4,74,30.02,10.0,Calm,Calm,-,N/A,,Clear,0,2013-01-31 04:35:00
10:55 PM,24.8,19.4,80,30.03,10.0,WSW,3.5,-,N/A,,Clear,250,2013-01-31 04:55:00
11:15 PM,24.8,17.6,74,30.02,10.0,Calm,Calm,-,N/A,,Clear,0,2013-01-31 05:15:00
11:35 PM,24.8,19.4,80,30.03,10.0,WSW,3.5,-,N/A,,Clear,240,2013-01-31 05:35:00
11:55 PM,24.8,19.4,80,30.02,10.0,SW,3.5,-,N/A,,Clear,220,2013-01-31 05:55:00